Time;durP1;ratioP1;P1;durP2;ratioP2;P2;SDS_P1;SDS_P2;PMS_P1;PMS_P2;Temp;Humidity;BMP_temperature;BMP_pressure;BME280_temperature;BME280_humidity;BME280_pressure;Samples;Min_cycle;Max_cycle;Signal;HPM_P1;HPM_P2
2022/11/21 04:57:27;;;;;;;58.80;16.48;;;;;;;-1.07;100.00;99692.25;5310108;28;20121;-84
2022/11/21 05:00:30;;;;;;;81.03;17.20;;;;;;;-1.05;100.00;99674.47;5239882;34;34702;-85
2022/11/21 05:03:33;;;;;;;67.03;18.98;;;;;;;-1.10;100.00;99674.84;5240886;33;33698;-85
2022/11/21 05:06:35;;;;;;;49.92;16.30;;;;;;;-1.15;100.00;99680.47;5241682;33;32958;-84
2022/11/21 05:09:38;;;;;;;39.78;15.05;;;;;;;-1.07;100.00;99682.50;5255077;33;34063;-85
2022/11/21 05:16:02;;;;;;;37.47;16.02;;;;;;;-1.09;100.00;99683.59;5256326;33;33834;-85
2022/11/21 05:19:06;;;;;;;44.25;15.73;;;;;;;-1.15;100.00;99680.47;5254912;33;33634;-85
2022/11/21 05:22:08;;;;;;;48.53;18.23;;;;;;;-1.09;100.00;99679.16;5241969;33;32040;-85
2022/11/21 05:25:11;;;;;;;61.70;17.58;;;;;;;-1.05;100.00;99672.69;5256384;33;34058;-85
2022/11/21 05:28:14;;;;;;;53.13;16.55;;;;;;;-1.04;100.00;99679.63;5255049;33;34255;-85
2022/11/21 05:31:17;;;;;;;46.05;16.60;;;;;;;-1.11;100.00;99675.81;5242259;33;32852;-85
2022/11/21 05:34:19;;;;;;;41.37;15.57;;;;;;;-0.95;100.00;99672.78;5254215;33;33341;-85
2022/11/21 05:37:22;;;;;;;37.33;15.10;;;;;;;-1.05;100.00;99669.16;5255436;33;33084;-85
2022/11/21 05:40:25;;;;;;;65.65;18.25;;;;;;;-0.92;100.00;99675.19;5255740;33;34882;-85
2022/11/21 05:43:46;;;;;;;62.10;18.17;;;;;;;-1.06;100.00;99668.34;5255783;33;34246;-85
2022/11/21 05:46:48;;;;;;;49.85;15.25;;;;;;;-1.18;100.00;99659.56;5255985;33;33639;-85
2022/11/21 05:49:51;;;;;;;58.67;16.92;;;;;;;-1.20;100.00;99658.00;5245120;33;31932;-85
2022/11/21 05:52:54;;;;;;;36.78;15.45;;;;;;;-1.23;100.00;99664.41;5249245;33;32149;-85
2022/11/21 05:56:08;;;;;;;38.10;16.48;;;;;;;-1.12;100.00;99668.81;5266619;33;34518;-85
2022/11/21 05:59:11;;;;;;;37.95;17.15;;;;;;;-1.19;100.00;99659.72;5254980;33;34786;-85
2022/11/21 06:05:35;;;;;;;37.53;15.73;;;;;;;-1.08;100.00;99666.78;5253782;33;34645;-86
2022/11/21 06:08:43;;;;;;;37.17;15.27;;;;;;;-1.11;100.00;99657.31;5227622;34;33369;-85
2022/11/21 06:11:46;;;;;;;50.97;16.65;;;;;;;-1.11;100.00;99664.38;5225951;33;31736;-85
2022/11/21 06:14:48;;;;;;;46.67;16.23;;;;;;;-1.15;100.00;99675.19;5237278;33;33784;-88
2022/11/21 06:17:51;;;;;;;57.92;16.15;;;;;;;-1.21;100.00;99665.09;5237099;34;34070;-88
2022/11/21 06:21:00;;;;;;;44.28;16.73;;;;;;;-1.32;100.00;99659.81;5239994;33;33366;-89
2022/11/21 06:24:04;;;;;;;42.00;15.88;;;;;;;-1.28;100.00;99668.38;5255032;33;33482;-85
2022/11/21 06:27:07;;;;;;;39.17;15.77;;;;;;;-1.11;100.00;99664.38;5253911;33;34235;-85
2022/11/21 06:30:10;;;;;;;47.88;16.05;;;;;;;-1.04;100.00;99674.34;5237892;33;33172;-85
2022/11/21 06:33:12;;;;;;;39.03;16.33;;;;;;;-1.10;100.00;99685.41;5223687;33;33644;-85
2022/11/21 06:36:16;;;;;;;33.63;15.52;;;;;;;-1.12;100.00;99689.13;5237650;33;33047;-84
2022/11/21 06:39:19;;;;;;;49.58;17.48;;;;;;;-1.08;100.00;99687.91;5222131;33;31774;-85
2022/11/21 06:42:21;;;;;;;60.33;23.23;;;;;;;-0.99;100.00;99681.91;5237433;33;33306;-85
2022/11/21 06:45:24;;;;;;;60.90;25.23;;;;;;;-0.97;100.00;99685.25;5237729;33;33919;-85
2022/11/21 06:48:27;;;;;;;45.53;19.60;;;;;;;-1.00;100.00;99693.44;5236782;34;33104;-85
2022/11/21 06:51:30;;;;;;;46.92;18.40;;;;;;;-1.03;100.00;99696.31;5237330;33;33390;-85
2022/11/21 06:54:32;;;;;;;46.80;18.40;;;;;;;-1.03;100.00;99701.59;5239193;33;33724;-85
2022/11/21 06:57:35;;;;;;;53.15;20.33;;;;;;;-1.02;100.00;99709.41;5243966;33;33442;-85
2022/11/21 07:00:38;;;;;;;66.65;19.52;;;;;;;-0.95;100.00;99718.53;5230788;33;272719;-85
2022/11/21 07:03:41;;;;;;;43.00;18.42;;;;;;;-0.78;100.00;99717.22;5232224;34;32573;-85
2022/11/21 07:06:44;;;;;;;43.50;17.77;;;;;;;-0.57;100.00;99727.03;5241011;33;33316;-85
2022/11/21 07:09:47;;;;;;;39.83;17.87;;;;;;;-0.47;100.00;99720.88;5239056;33;34195;-85
2022/11/21 07:16:14;;;;;;;39.92;19.33;;;;;;;-0.27;100.00;99723.72;5235903;34;33246;-85
2022/11/21 07:19:17;;;;;;;49.25;18.60;;;;;;;-0.16;100.00;99717.56;5235379;34;33467;-85
2022/11/21 07:22:19;;;;;;;52.85;20.27;;;;;;;-0.19;100.00;99717.81;5235818;33;34313;-85
2022/11/21 07:25:22;;;;;;;45.92;19.52;;;;;;;-0.33;100.00;99718.91;5223561;33;33231;-85
2022/11/21 07:28:26;;;;;;;42.75;19.40;;;;;;;-0.25;100.00;99727.06;5243156;34;33691;-84
2022/11/21 07:31:29;;;;;;;48.87;19.08;;;;;;;-0.08;100.00;99720.41;5242426;34;36132;-84
2022/11/21 07:34:31;;;;;;;42.88;18.08;;;;;;;-0.13;100.00;99718.13;5236223;34;33766;-85
2022/11/21 07:37:41;;;;;;;49.33;19.40;;;;;;;0.06;100.00;99717.47;5235388;33;33085;-85
2022/11/21 07:40:46;;;;;;;43.10;18.67;;;;;;;0.06;100.00;99717.47;5244669;33;33502;-85
2022/11/21 07:43:49;;;;;;;59.58;22.23;;;;;;;0.10;100.00;99733.94;5239102;33;33396;-85
2022/11/21 07:46:54;;;;;;;50.38;21.20;;;;;;;0.02;100.00;99721.31;5239152;34;33525;-86
2022/11/21 07:49:57;;;;;;;59.15;21.10;;;;;;;0.02;100.00;99725.78;5235767;33;33604;-83
2022/11/21 07:53:03;;;;;;;62.45;20.33;;;;;;;0.00;100.00;99725.94;5236101;34;33668;-85
2022/11/21 07:56:08;;;;;;;81.40;20.77;;;;;;;0.02;100.00;99729.25;5226543;34;32289;-85
2022/11/21 07:59:11;;;;;;;57.72;18.80;;;;;;;-0.07;100.00;99738.78;5244977;33;33703;-86
2022/11/21 08:02:18;;;;;;;47.75;20.10;;;;;;;-0.03;100.00;99742.03;5238484;33;33409;-85
2022/11/21 08:05:21;;;;;;;51.80;20.80;;;;;;;0.10;100.00;99741.87;5223622;34;31403;-85
2022/11/21 08:08:24;;;;;;;61.37;20.40;;;;;;;0.21;100.00;99736.53;5252081;34;33521;-88
2022/11/21 08:11:27;;;;;;;66.90;21.73;;;;;;;0.27;100.00;99746.62;5238585;34;34872;-90
2022/11/21 08:14:29;;;;;;;55.47;20.83;;;;;;;0.33;100.00;99742.63;5237906;34;33900;-90
2022/11/21 08:17:32;;;;;;;48.70;19.80;;;;;;;0.37;100.00;99746.69;5237316;33;34976;-90
2022/11/21 08:20:35;;;;;;;36.25;16.42;;;;;;;0.55;100.00;99749.59;5238994;34;33616;-86
2022/11/21 08:23:38;;;;;;;42.08;17.65;;;;;;;0.84;100.00;99741.81;5237723;34;33564;-86
2022/11/21 08:26:40;;;;;;;46.08;17.95;;;;;;;1.07;100.00;99739.84;5240415;34;33798;-86
2022/11/21 08:29:43;;;;;;;42.62;18.92;;;;;;;1.52;100.00;99745.59;5239515;34;33480;-86
2022/11/21 08:32:57;;;;;;;35.47;15.40;;;;;;;1.76;100.00;99745.22;5219972;34;31903;-86
2022/11/21 08:36:06;;;;;;;37.28;15.05;;;;;;;1.78;100.00;99751.25;5237602;33;33521;-86
2022/11/21 08:39:09;;;;;;;35.33;14.80;;;;;;;1.92;100.00;99759.78;5245849;33;33728;-85
2022/11/21 08:42:12;;;;;;;42.58;15.45;;;;;;;1.76;100.00;99749.72;5248716;33;34542;-85
2022/11/21 08:45:14;;;;;;;34.75;17.45;;;;;;;1.95;100.00;99760.34;5237194;34;33623;-86
2022/11/21 08:48:17;;;;;;;33.08;15.07;;;;;;;2.06;100.00;99766.50;5237377;33;33250;-86
2022/11/21 08:51:21;;;;;;;28.50;14.07;;;;;;;1.85;100.00;99771.94;5223496;33;31901;-86
2022/11/21 08:54:24;;;;;;;30.75;14.13;;;;;;;1.90;100.00;99772.34;5232925;33;33756;-86
2022/11/21 08:57:27;;;;;;;35.33;14.77;;;;;;;1.82;100.00;99762.44;5216375;34;32073;-86
2022/11/21 09:00:29;;;;;;;32.13;14.25;;;;;;;1.96;100.00;99766.47;5240263;33;33367;-86
2022/11/21 09:03:32;;;;;;;25.52;12.27;;;;;;;1.71;100.00;99771.31;5229170;34;32218;-86
2022/11/21 09:06:35;;;;;;;31.12;13.98;;;;;;;1.86;100.00;99766.47;5230563;34;32060;-85
2022/11/21 09:09:38;;;;;;;30.48;13.95;;;;;;;2.00;100.00;99766.06;5238158;34;34011;-86
2022/11/21 09:12:42;;;;;;;40.97;17.42;;;;;;;2.16;100.00;99762.03;5237938;33;33291;-86
2022/11/21 09:19:06;;;;;;;50.58;21.95;;;;;;;2.17;100.00;99758.41;5235613;33;33583;-85
2022/11/21 09:22:08;;;;;;;51.10;21.55;;;;;;;2.03;100.00;99757.84;5224167;34;32051;-85
2022/11/21 09:25:11;;;;;;;47.22;20.92;;;;;;;1.91;100.00;99760.75;5237915;34;33528;-85
2022/11/21 09:28:14;;;;;;;45.90;20.85;;;;;;;2.00;100.00;99762.59;5238325;34;33618;-85
2022/11/21 09:31:17;;;;;;;42.97;19.80;;;;;;;1.96;100.00;99762.03;5238098;33;33922;-86
2022/11/21 09:34:19;;;;;;;41.30;19.65;;;;;;;1.84;100.00;99749.84;5224243;34;33387;-86
2022/11/21 09:37:22;;;;;;;49.92;21.75;;;;;;;1.88;100.00;99761.03;5237195;33;34009;-85
2022/11/21 09:40:27;;;;;;;48.53;23.10;;;;;;;1.90;100.00;99751.97;5238149;34;34240;-85
2022/11/21 09:43:44;;;;;;;56.40;22.27;;;;;;;1.98;100.00;99761.88;5237777;34;34406;-85
2022/11/21 09:46:50;;;;;;;48.08;21.87;;;;;;;2.27;100.00;99760.06;5244893;34;33641;-86
2022/11/21 09:50:00;;;;;;;43.42;19.62;;;;;;;2.57;100.00;99768.88;5237580;33;33836;-85
2022/11/21 09:53:08;;;;;;;45.90;20.77;;;;;;;2.59;100.00;99766.09;5237414;33;33544;-90
2022/11/21 09:56:15;;;;;;;45.15;21.10;;;;;;;2.64;100.00;99763.84;5237260;33;33381;-90
2022/11/21 09:59:28;;;;;;;49.88;20.77;;;;;;;2.88;100.00;99755.41;5224255;34;33197;-86
2022/11/21 10:02:31;;;;;;;53.55;23.38;;;;;;;2.92;100.00;99757.59;5235418;33;34116;-86
2022/11/21 10:05:46;;;;;;;42.67;20.80;;;;;;;3.00;100.00;99754.25;5227462;33;35192;-85
2022/11/21 10:09:10;;;;;;;38.20;19.00;;;;;;;3.32;100.00;99748.53;5239548;34;34141;-85
2022/11/21 10:12:45;;;;;;;45.97;19.98;;;;;;;3.36;100.00;99754.38;5227394;34;33273;-85
2022/11/21 10:16:10;;;;;;;49.33;19.85;;;;;;;3.59;100.00;99747.69;5246414;33;33506;-85
2022/11/21 10:19:36;;;;;;;40.70;19.50;;;;;;;3.70;100.00;99745.81;5238790;33;33242;-85
2022/11/21 10:23:14;;;;;;;50.28;22.77;;;;;;;3.65;100.00;99738.25;5231708;34;33611;-83
2022/11/21 10:26:20;;;;;;;48.15;21.23;;;;;;;3.61;100.00;99732.41;5232560;34;33515;-84
2022/11/21 10:29:27;;;;;;;49.20;21.62;;;;;;;3.61;100.00;99737.72;5237613;34;34571;-84
2022/11/21 10:32:43;;;;;;;46.92;20.55;;;;;;;3.44;100.00;99727.88;5237733;34;33570;-84
2022/11/21 10:35:57;;;;;;;39.95;18.20;;;;;;;3.21;100.00;99723.94;5237697;34;33659;-84
2022/11/21 10:39:17;;;;;;;36.90;19.17;;;;;;;3.25;100.00;99710.19;5237305;33;33660;-84
2022/11/21 10:42:37;;;;;;;43.93;19.70;;;;;;;3.53;100.00;99710.19;5239607;33;33725;-84
2022/11/21 10:45:40;;;;;;;42.00;18.80;;;;;;;3.79;100.00;99707.66;5234217;34;34135;-84
2022/11/21 10:48:58;;;;;;;42.20;18.73;;;;;;;3.61;100.00;99716.44;5223251;34;32199;-83
2022/11/21 10:52:25;;;;;;;38.90;19.40;;;;;;;3.61;100.00;99708.44;5232872;34;33574;-83
2022/11/21 10:55:27;;;;;;;40.38;18.08;;;;;;;3.26;100.00;99706.53;5235366;34;34435;-84
2022/11/21 10:58:52;;;;;;;40.20;18.42;;;;;;;3.38;100.00;99710.69;5236518;34;34273;-84
2022/11/21 11:02:01;;;;;;;36.65;17.58;;;;;;;3.23;100.00;99704.19;5239621;34;33748;-88
2022/11/21 11:05:16;;;;;;;36.33;17.85;;;;;;;3.01;100.00;99705.38;5241984;34;33788;-84
2022/11/21 11:08:18;;;;;;;37.17;17.92;;;;;;;3.08;100.00;99706.50;5241148;34;33789;-84
2022/11/21 11:11:24;;;;;;;33.20;16.65;;;;;;;3.09;100.00;99709.97;5241103;34;33626;-84
2022/11/21 11:14:31;;;;;;;41.35;18.80;;;;;;;3.08;100.00;99701.16;5239595;33;33763;-84
2022/11/21 11:17:34;;;;;;;36.17;17.60;;;;;;;3.23;100.00;99692.72;5242001;34;34418;-84
2022/11/21 11:20:40;;;;;;;40.70;18.00;;;;;;;3.54;100.00;99695.87;5240481;34;33283;-84
2022/11/21 11:23:43;;;;;;;35.42;16.80;;;;;;;3.40;100.00;99691.94;5236395;34;32095;-84
2022/11/21 11:26:45;;;;;;;35.10;16.00;;;;;;;3.62;100.00;99685.34;5243564;34;34734;-84
2022/11/21 11:29:51;;;;;;;36.15;16.70;;;;;;;4.01;100.00;99693.06;5226947;34;33204;-84
2022/11/21 11:32:54;;;;;;;41.63;17.35;;;;;;;3.80;100.00;99670.22;5244991;33;33626;-83
2022/11/21 11:36:36;;;;;;;36.20;17.42;;;;;;;3.95;100.00;99677.66;5260510;33;33654;-84
2022/11/21 11:39:40;;;;;;;34.55;17.00;;;;;;;3.99;100.00;99673.72;5227358;34;33635;-84
2022/11/21 11:47:31;;;;;;;37.30;17.30;;;;;;;4.53;100.00;99654.00;5223737;34;31742;-84
2022/11/21 11:50:37;;;;;;;30.67;17.35;;;;;;;4.94;100.00;99650.72;5198054;34;33510;-84
2022/11/21 11:53:45;;;;;;;34.05;17.00;;;;;;;5.09;100.00;99646.47;5206936;34;33735;-84
2022/11/21 11:56:49;;;;;;;49.33;26.48;;;;;;;5.46;100.00;99648.72;5238727;34;34541;-85
2022/11/21 12:00:12;;;;;;;42.47;23.67;;;;;;;5.58;100.00;99643.91;5227422;33;31465;-85
2022/11/21 12:03:33;;;;;;;38.92;22.30;;;;;;;5.54;100.00;99634.56;5242403;34;34032;-84
2022/11/21 12:06:35;;;;;;;43.35;21.85;;;;;;;5.74;100.00;99634.28;5237547;34;32027;-84
2022/11/21 12:10:09;;;;;;;34.63;19.42;;;;;;;5.69;100.00;99632.09;5251714;34;33375;-84
2022/11/21 12:13:17;;;;;;;36.90;19.87;;;;;;;5.72;100.00;99618.41;5249376;34;34893;-84
2022/11/21 12:16:24;;;;;;;37.00;19.80;;;;;;;5.99;100.00;99621.81;5252012;33;34433;-84
2022/11/21 12:19:26;;;;;;;34.83;18.83;;;;;;;6.65;100.00;99601.19;5249370;33;35529;-85
2022/11/21 12:22:29;;;;;;;39.83;20.00;;;;;;;6.94;99.04;99595.22;5228275;34;33440;-89
2022/11/21 12:25:39;;;;;;;38.58;20.25;;;;;;;6.93;99.05;99602.41;5226448;34;35079;-89
2022/11/21 12:28:57;;;;;;;;;;;;;;;7.02;99.88;99587.16;5218742;34;32502;-85
2022/11/21 12:32:06;;;;;;;39.33;21.30;;;;;;;6.86;99.60;99592.56;5221840;34;32968;-84
2022/11/21 12:35:31;;;;;;;42.03;22.02;;;;;;;6.76;100.00;99592.78;5235023;33;33366;-84
2022/11/21 12:39:03;;;;;;;42.72;22.25;;;;;;;6.49;100.00;99586.00;5240105;33;33996;-84
2022/11/21 12:45:46;;;;;;;34.45;19.58;;;;;;;6.93;100.00;99578.34;5224946;34;31781;-84
2022/11/21 12:55:58;;;;;;;36.15;20.67;;;;;;;8.27;92.45;99573.53;5240598;34;33221;-85
2022/11/21 12:59:03;;;;;;;35.65;19.65;;;;;;;8.22;90.96;99574.09;5225791;34;32801;-85
2022/11/21 13:02:37;;;;;;;42.17;20.70;;;;;;;7.72;93.63;99586.22;5236925;33;33415;-85
2022/11/21 13:05:47;;;;;;;35.08;19.20;;;;;;;7.34;97.15;99577.28;5242878;34;35014;-85
2022/11/21 13:08:52;;;;;;;37.88;20.70;;;;;;;7.03;100.00;99578.94;5235459;34;32209;-84
2022/11/21 13:12:04;;;;;;;36.65;20.23;;;;;;;6.52;100.00;99577.62;5229211;34;32733;-85
2022/11/21 13:15:14;;;;;;;39.35;20.35;;;;;;;6.45;100.00;99576.66;5230774;33;32848;-85
2022/11/21 13:18:32;;;;;;;;;;;;;;;6.25;100.00;99574.34;5237951;33;33481;-84
2022/11/21 13:21:50;;;;;;;41.72;18.98;;;;;;;6.17;100.00;99584.22;5234155;34;34691;-84
2022/11/21 13:24:53;;;;;;;32.80;18.70;;;;;;;5.98;100.00;99582.75;5235578;33;33673;-84
2022/11/21 13:28:11;;;;;;;32.80;17.20;;;;;;;5.89;100.00;99579.19;5222447;34;31990;-84
2022/11/21 13:31:32;;;;;;;30.83;17.05;;;;;;;5.84;100.00;99592.22;5228425;33;33620;-90
2022/11/21 13:34:37;;;;;;;26.45;14.95;;;;;;;5.98;100.00;99580.06;5240633;33;33366;-84
2022/11/21 13:37:48;;;;;;;26.45;15.38;;;;;;;6.14;100.00;99577.34;5232699;33;33539;-84
2022/11/21 13:44:31;;;;;;;26.95;13.70;;;;;;;6.28;100.00;99579.34;5220384;34;33328;-84
2022/11/21 13:47:55;;;;;;;25.25;14.65;;;;;;;6.42;100.00;99572.47;5220383;34;33461;-84
2022/11/21 13:51:26;;;;;;;28.25;13.35;;;;;;;6.13;100.00;99571.19;5222373;34;33608;-84
2022/11/21 13:54:38;;;;;;;25.25;13.88;;;;;;;5.87;100.00;99582.03;5223966;34;32175;-84
2022/11/21 13:57:44;;;;;;;24.55;13.55;;;;;;;5.73;100.00;99588.03;5225247;34;32090;-84
2022/11/21 14:01:02;;;;;;;23.05;12.25;;;;;;;5.62;100.00;99578.53;5225623;34;32580;-84
2022/11/21 14:04:37;;;;;;;24.87;12.77;;;;;;;5.51;100.00;99594.03;5238505;34;33603;-88
2022/11/21 14:07:42;;;;;;;25.45;12.90;;;;;;;5.45;100.00;99587.50;5240146;33;34360;-84
2022/11/21 14:10:47;;;;;;;23.90;12.50;;;;;;;5.41;100.00;99588.81;5227701;34;32860;-84
2022/11/21 14:13:50;;;;;;;22.27;11.65;;;;;;;5.29;100.00;99588.28;5232823;34;32547;-84
2022/11/21 14:17:23;;;;;;;19.55;10.60;;;;;;;5.18;100.00;99584.13;5238205;34;32140;-84
2022/11/21 14:20:33;;;;;;;18.02;9.85;;;;;;;5.19;100.00;99584.94;5232566;33;31703;-84
2022/11/21 14:23:43;;;;;;;23.30;10.15;;;;;;;5.08;100.00;99590.59;5239336;34;33315;-84
2022/11/21 14:26:51;;;;;;;20.58;9.95;;;;;;;4.98;100.00;99593.38;5227823;34;32136;-84
2022/11/21 14:29:54;;;;;;;14.68;8.85;;;;;;;4.81;100.00;99591.66;5246001;34;34399;-84
2022/11/21 14:33:40;;;;;;;17.87;10.05;;;;;;;4.76;100.00;99584.94;5231769;34;32542;-84
2022/11/21 14:36:43;;;;;;;18.48;10.35;;;;;;;4.71;100.00;99587.28;5220930;33;33034;-83
2022/11/21 14:39:46;;;;;;;15.02;9.43;;;;;;;4.56;100.00;99583.53;5233985;34;33806;-83
2022/11/21 14:43:00;;;;;;;19.05;10.32;;;;;;;4.59;100.00;99591.19;5235603;33;34412;-87
2022/11/21 14:46:02;;;;;;;17.65;9.23;;;;;;;4.41;100.00;99593.94;5234993;33;34502;-87
2022/11/21 14:49:25;;;;;;;19.48;9.77;;;;;;;4.41;100.00;99593.09;5220780;34;32550;-86
2022/11/21 14:52:32;;;;;;;20.62;10.30;;;;;;;4.35;100.00;99605.22;5222066;34;32618;-83
2022/11/21 14:55:35;;;;;;;19.80;9.73;;;;;;;4.40;100.00;99602.09;5219644;33;31952;-83
2022/11/21 14:58:39;;;;;;;19.15;10.10;;;;;;;4.42;100.00;99606.28;5219412;34;33290;-83
2022/11/21 15:01:54;;;;;;;17.33;9.00;;;;;;;4.34;100.00;99610.72;5226523;33;33169;-83
2022/11/21 15:05:02;;;;;;;19.77;10.18;;;;;;;4.18;100.00;99616.75;5238941;34;35086;-83
2022/11/21 15:08:08;;;;;;;16.27;9.68;;;;;;;4.20;100.00;99610.28;5238095;33;33237;-84
2022/11/21 15:11:46;;;;;;;17.85;9.60;;;;;;;4.22;100.00;99618.97;5225132;34;31880;-83
2022/11/21 15:14:55;;;;;;;20.62;9.68;;;;;;;4.23;100.00;99612.63;5227649;34;32519;-84
2022/11/21 15:18:03;;;;;;;20.58;10.05;;;;;;;4.24;100.00;99617.00;5236916;34;33790;-84
2022/11/21 15:21:26;;;;;;;22.48;10.13;;;;;;;4.30;100.00;99620.87;5223879;34;33438;-83
2022/11/21 15:24:32;;;;;;;21.98;9.27;;;;;;;4.27;100.00;99618.47;5237140;34;33562;-83
2022/11/21 15:27:35;;;;;;;18.80;9.30;;;;;;;4.27;100.00;99616.69;5236784;34;33452;-84
2022/11/21 15:30:37;;;;;;;16.45;8.98;;;;;;;4.23;100.00;99630.47;5237288;34;33491;-84
2022/11/21 15:34:00;;;;;;;21.73;9.70;;;;;;;4.19;100.00;99629.94;5224631;34;31890;-84
2022/11/21 15:37:24;;;;;;;16.23;8.80;;;;;;;4.24;100.00;99632.12;5237192;34;33811;-84
2022/11/21 15:40:27;;;;;;;15.57;8.85;;;;;;;4.26;100.00;99638.97;5223455;34;33935;-84
2022/11/21 15:43:42;;;;;;;17.33;9.48;;;;;;;4.20;100.00;99644.91;5236407;34;33544;-84
2022/11/21 15:46:45;;;;;;;17.17;9.70;;;;;;;4.12;100.00;99642.19;5236671;34;33652;-84
2022/11/21 15:49:48;;;;;;;17.50;9.13;;;;;;;4.13;100.00;99643.87;5230241;34;33064;-84
2022/11/21 15:52:52;;;;;;;20.60;10.35;;;;;;;4.14;100.00;99656.19;5230284;34;32944;-84
2022/11/21 15:55:54;;;;;;;19.15;9.98;;;;;;;4.23;100.00;99649.09;5242083;34;33505;-84
2022/11/21 15:58:58;;;;;;;18.48;9.55;;;;;;;4.24;100.00;99656.09;5236931;34;33719;-84
2022/11/21 16:02:01;;;;;;;16.65;8.07;;;;;;;4.25;100.00;99650.63;5222670;34;33002;-83
2022/11/21 16:05:04;;;;;;;17.85;9.60;;;;;;;4.28;100.00;99655.66;5235913;34;34838;-85
2022/11/21 16:08:07;;;;;;;17.27;9.05;;;;;;;4.20;100.00;99644.91;5223235;34;31944;-85
2022/11/21 16:11:26;;;;;;;14.70;8.15;;;;;;;4.19;100.00;99632.59;5223138;34;33148;-85
2022/11/21 16:14:29;;;;;;;17.67;10.07;;;;;;;4.15;100.00;99636.56;5222615;34;32276;-85
2022/11/21 16:17:32;;;;;;;18.23;8.45;;;;;;;4.12;100.00;99636.03;5223443;34;31683;-84
2022/11/21 16:20:34;;;;;;;17.27;8.77;;;;;;;4.08;100.00;99651.50;5245915;34;33282;-85
2022/11/21 16:23:37;;;;;;;17.40;9.30;;;;;;;4.08;100.00;99648.81;5226452;34;33189;-85
2022/11/21 16:26:40;;;;;;;18.15;9.68;;;;;;;4.15;100.00;99639.22;5237973;34;34841;-85
2022/11/21 16:29:43;;;;;;;19.35;9.90;;;;;;;3.99;100.00;99626.63;5225341;34;31745;-85
2022/11/21 16:32:45;;;;;;;15.73;9.18;;;;;;;4.02;100.00;99622.81;5225404;34;31949;-85
2022/11/21 16:35:53;;;;;;;20.67;11.73;;;;;;;4.11;100.00;99629.03;5238235;33;33483;-85
2022/11/21 16:38:56;;;;;;;16.17;9.93;;;;;;;4.01;100.00;99626.47;5241172;33;33478;-85
2022/11/21 16:42:09;;;;;;;18.87;10.93;;;;;;;3.91;100.00;99620.37;5226073;33;32214;-85
2022/11/21 16:45:11;;;;;;;20.90;10.82;;;;;;;3.81;100.00;99629.28;5238959;34;33659;-85
2022/11/21 16:48:14;;;;;;;22.02;10.98;;;;;;;3.67;100.00;99618.34;5226586;34;31971;-85
2022/11/21 16:51:19;;;;;;;19.60;10.50;;;;;;;3.58;100.00;99625.41;5239294;33;33479;-84
2022/11/21 16:54:23;;;;;;;19.50;9.85;;;;;;;3.52;100.00;99626.03;5245896;33;33934;-85
2022/11/21 16:57:26;;;;;;;19.12;10.23;;;;;;;3.43;100.00;99621.63;5241537;33;34100;-84
2022/11/21 17:00:30;;;;;;;17.17;10.00;;;;;;;3.32;100.00;99622.66;5238031;34;34533;-88
